Antioch, TX

6:39 AM CDT on April 21, 2015 (GMT -0500)
JOAQUIN Amateur Radio W5RYM | | Change Station
CLOSE
Current Station
Personal Weather Station
Location: Joaquin, TX
Elevation: 283 ft
Nearby Weather Stations
Active Advisory: Flood Warning Active Notice: Local Storm Report

Elev 283 ft 31.91 °N, 94.08 °W | Updated 2 seconds ago

Mostly Cloudy
Mostly Cloudy
52.1 °F
Feels Like 52.1 °F
N
2.1
Wind Variable Wind from NE
Gusts 2.1 mph

Today
High -- | Low -- °F
--% Chance of Precip.
Yesterday
High -- | Low -- °F
Precip. -- in
6:41 AM 7:49 PM
Waxing Crescent, 10% visible
Pressure 30.03 in
Visibility 9.0 miles
Clouds Few 1200 ft
Scattered Clouds 5000 ft
Mostly Cloudy 9500 ft
Dew Point 49 °F
Humidity 90%
Rainfall 0.00 in
Snow Depth Not available.
UV 0 out of 12
Pollen 9.40 out of 12
Air Quality Not available.
Flu Activity Local Activity
METAR KOCH 211135Z AUTO 05004KT 9SM FEW012 SCT050 BKN095 11/09 A3003 RMK AO1

More Conditions Fewer Conditions

Pressure 30.03 in
Visibility 9.0 miles
Clouds Few 1200 ft
Scattered Clouds 5000 ft
Mostly Cloudy 9500 ft
Dew Point 49 °F
Humidity 90%
Rainfall 0.00 in
Snow Depth Not available.
UV 0 out of 12
Pollen 9.40 out of 12
Air Quality Not available.
Flu Activity Local Activity
METAR KOCH 211135Z AUTO 05004KT 9SM FEW012 SCT050 BKN095 11/09 A3003 RMK AO1

More Conditions Fewer Conditions

10-Day Weather Forecast

Almanac

Astronomy

Apr. 21, 2015 Rise Set
Actual Time
Civil Twilight
Nautical Twilight
Astronomical Twilight
Moon
Length of Visible Light
Length of Day
Tomorrow will be .
, % of the Moon is Illuminated

Today's Extremes

State Highs State Lows

Community

WunderPhotos

Upload Photos

1,815,348 photos uploaded!

WunderBlogs® & News

Nearby

Air Quality

  Air Quality AQ Index Pollutant
Not available.

Snow Depth

Station Depth Elevation

Earthquake Activity

City Distance Mag. Time & Date
Minimum magnitude displayed is 2.5.

Coastal Water Temperatures

Place Temperature

Stations

Nearby Weather Stations

Station Location Temp. Windchill Dew Point Humidity Wind Precip. Elev Updated Type
                   
Flood Warning
Statement as of 9:45 AM CDT on April 20, 2015

... The Flood Warning extended until Saturday evening... the Flood
Warning continues for
the Attoyac Bayou near Chireno, Texas.
* Until Saturday evening... or until the warning is cancelled.
* At 830 am Monday the stage was 18.6 feet.
* Minor flooding is occurring and minor flooding is forecast.
* Flood stage is 14 feet.
* Forecast... the Attoyac Bayou will crest near 18.7 feet
during late this Monday morning. Then The Bayou will
fall to below flood stage by Saturday morning.


Lat... Lon 3142 9432 3191 9451 3192 9447 3157 9429 3150 9430